createdAt,value
2019-01-23T00:02:23.548Z,-3.79
2019-01-23T00:04:53.968Z,-3.90
2019-01-23T00:07:24.365Z,-3.79
2019-01-23T00:09:54.560Z,-3.80
2019-01-23T00:12:24.973Z,-3.78
2019-01-23T00:14:55.384Z,-3.72
2019-01-23T00:17:25.746Z,-3.63
2019-01-23T00:19:56.018Z,-3.58
2019-01-23T00:22:27.311Z,-3.60
2019-01-23T00:24:58.667Z,-3.63
2019-01-23T00:27:28.982Z,-3.58
2019-01-23T00:29:59.347Z,-3.53
2019-01-23T00:32:29.569Z,-3.44
2019-01-23T00:34:59.827Z,-3.56
2019-01-23T00:37:30.204Z,-3.57
2019-01-23T00:40:00.462Z,-3.56
2019-01-23T00:42:30.770Z,-3.61
2019-01-23T00:45:01.195Z,-3.57
2019-01-23T00:47:31.628Z,-3.70
2019-01-23T00:50:02.014Z,-3.78
2019-01-23T00:52:32.391Z,-3.72
2019-01-23T00:55:02.687Z,-3.64
2019-01-23T00:57:32.942Z,-3.81
2019-01-23T01:00:03.470Z,-3.81
2019-01-23T01:02:33.830Z,-3.86
2019-01-23T01:05:05.086Z,-3.91
2019-01-23T01:07:35.433Z,-3.96
2019-01-23T01:10:09.482Z,-3.87
2019-01-23T01:12:39.874Z,-3.88
2019-01-23T01:15:13.503Z,-3.98
2019-01-23T01:17:43.107Z,-4.08
2019-01-23T01:20:14.256Z,-4.12
2019-01-23T01:22:45.124Z,-4.03
2019-01-23T01:25:18.028Z,-4.12
2019-01-23T01:27:48.412Z,-4.07
2019-01-23T01:30:25.654Z,-4.02
2019-01-23T01:32:56.032Z,-4.01
2019-01-23T01:35:26.473Z,-3.97
2019-01-23T01:37:57.821Z,-3.74
2019-01-23T01:40:29.203Z,-3.72
2019-01-23T01:42:59.545Z,-3.69
2019-01-23T01:45:29.964Z,-3.74
2019-01-23T01:48:00.366Z,-3.71
2019-01-23T01:50:30.769Z,-3.67
2019-01-23T01:53:01.185Z,-3.69
2019-01-23T01:55:31.609Z,-3.63
2019-01-23T01:58:03.349Z,-3.57
2019-01-23T02:00:33.746Z,-3.63
2019-01-23T02:03:04.121Z,-3.63
2019-01-23T02:05:34.606Z,-3.53
2019-01-23T02:08:05.094Z,-3.50
2019-01-23T02:10:35.401Z,-3.44
2019-01-23T02:13:05.859Z,-3.35
2019-01-23T02:15:36.134Z,-3.30
2019-01-23T02:18:06.564Z,-3.40
2019-01-23T02:20:36.874Z,-3.46
2019-01-23T02:23:13.158Z,-3.35
2019-01-23T02:25:43.586Z,-3.32
2019-01-23T02:28:14.043Z,-3.29
2019-01-23T02:30:44.482Z,-3.31
2019-01-23T02:33:14.892Z,-3.41
2019-01-23T02:35:45.240Z,-3.43
2019-01-23T02:38:15.521Z,-3.42
2019-01-23T02:40:45.947Z,-3.34
2019-01-23T02:43:16.265Z,-3.26
2019-01-23T02:45:46.464Z,-3.34
2019-01-23T02:48:16.705Z,-3.21
2019-01-23T02:50:47.257Z,-3.24
2019-01-23T02:53:17.674Z,-3.23
2019-01-23T02:55:48.067Z,-3.25
2019-01-23T02:58:18.394Z,-3.33
2019-01-23T03:00:48.866Z,-3.31
2019-01-23T03:03:19.226Z,-3.48
2019-01-23T03:05:49.582Z,-3.45
2019-01-23T03:08:20.954Z,-3.43
2019-01-23T03:10:51.366Z,-3.61
2019-01-23T03:13:21.593Z,-3.69
2019-01-23T03:15:51.956Z,-3.76
2019-01-23T03:18:22.300Z,-3.82
2019-01-23T03:20:52.782Z,-3.99
2019-01-23T03:23:23.005Z,-4.06
2019-01-23T03:25:53.443Z,-4.09
2019-01-23T03:28:23.779Z,-4.11
2019-01-23T03:30:54.189Z,-4.30
2019-01-23T03:33:24.503Z,-4.34
2019-01-23T03:35:54.752Z,-4.37
2019-01-23T03:38:25.202Z,-4.36
2019-01-23T03:40:55.614Z,-4.47
2019-01-23T03:43:26.061Z,-4.55
2019-01-23T03:45:56.489Z,-4.54
2019-01-23T03:48:26.916Z,-4.58
2019-01-23T03:50:57.203Z,-4.73
2019-01-23T03:53:27.621Z,-4.79
2019-01-23T03:55:57.965Z,-4.76
2019-01-23T03:58:28.377Z,-4.77
2019-01-23T04:00:58.593Z,-4.85
2019-01-23T04:03:28.950Z,-4.89
2019-01-23T04:05:59.380Z,-4.98
2019-01-23T04:08:29.826Z,-5.01
2019-01-23T04:11:01.518Z,-5.02
2019-01-23T04:13:31.837Z,-5.02
2019-01-23T04:16:02.254Z,-5.10
2019-01-23T04:18:32.676Z,-5.07
2019-01-23T04:21:02.955Z,-5.10
2019-01-23T04:23:33.154Z,-5.15
2019-01-23T04:26:03.554Z,-5.15
2019-01-23T04:28:33.897Z,-5.29
2019-01-23T04:31:04.372Z,-5.27
2019-01-23T04:33:34.791Z,-5.20
2019-01-23T04:36:05.241Z,-5.21
2019-01-23T04:38:41.519Z,-5.19
2019-01-23T04:41:14.004Z,-5.14
2019-01-23T04:43:44.354Z,-5.34
2019-01-23T04:46:14.639Z,-5.38
2019-01-23T04:48:44.909Z,-5.51
2019-01-23T04:51:35.242Z,-5.42
2019-01-23T04:54:06.143Z,-5.34
2019-01-23T04:56:36.486Z,-5.50
2019-01-23T04:59:06.944Z,-5.52
2019-01-23T05:01:37.219Z,-5.50
2019-01-23T05:04:07.849Z,-5.64
2019-01-23T05:06:38.178Z,-5.69
2019-01-23T05:09:10.501Z,-5.74
2019-01-23T05:11:40.831Z,-5.79
2019-01-23T05:14:11.168Z,-5.74
2019-01-23T05:16:41.445Z,-5.83
2019-01-23T05:19:11.762Z,-5.79
2019-01-23T05:21:42.079Z,-5.81
2019-01-23T05:24:12.398Z,-5.83
2019-01-23T05:26:42.704Z,-5.84
2019-01-23T05:29:13.053Z,-5.79
2019-01-23T05:31:43.454Z,-5.82
2019-01-23T05:34:13.997Z,-5.82
2019-01-23T05:36:44.350Z,-5.79
2019-01-23T05:39:14.779Z,-5.92
2019-01-23T05:41:45.025Z,-5.89
2019-01-23T05:44:15.450Z,-5.87
2019-01-23T05:46:45.752Z,-5.85
2019-01-23T05:49:16.125Z,-5.87
2019-01-23T05:51:46.461Z,-4.46
2019-01-23T05:54:16.962Z,-5.47
2019-01-23T05:56:47.280Z,-5.77
2019-01-23T05:59:17.546Z,-5.78
2019-01-23T06:01:49.055Z,-5.85
2019-01-23T06:04:20.500Z,-4.77
2019-01-23T06:06:52.118Z,-5.65
2019-01-23T06:09:22.832Z,-5.83
2019-01-23T06:11:54.211Z,-5.82
2019-01-23T06:14:24.561Z,-5.85
2019-01-23T06:16:54.736Z,-6.02
2019-01-23T06:19:25.102Z,-6.05
2019-01-23T06:21:55.366Z,-6.06
2019-01-23T06:24:25.640Z,-5.98
2019-01-23T06:26:56.055Z,-6.18
2019-01-23T06:29:26.297Z,-5.97
2019-01-23T06:31:56.613Z,-6.02
2019-01-23T06:34:27.124Z,-6.08
2019-01-23T06:36:57.540Z,-5.54
2019-01-23T06:39:29.025Z,-5.95
2019-01-23T06:42:00.526Z,-6.09
2019-01-23T06:44:30.806Z,-6.27
2019-01-23T06:47:01.856Z,-6.22
2019-01-23T06:49:32.142Z,-6.21
2019-01-23T06:52:02.427Z,-6.36
2019-01-23T06:54:32.914Z,-6.45
2019-01-23T06:57:03.297Z,-6.37
2019-01-23T06:59:33.691Z,-6.41
2019-01-23T07:02:04.288Z,-6.45
2019-01-23T07:04:34.469Z,-5.84
2019-01-23T07:07:04.891Z,-6.28
2019-01-23T07:09:35.371Z,-6.34
2019-01-23T07:12:05.846Z,-6.50
2019-01-23T07:14:37.202Z,-6.54
2019-01-23T07:17:07.598Z,-6.57
2019-01-23T07:19:37.942Z,-6.61
2019-01-23T07:22:08.414Z,-6.50
2019-01-23T07:24:38.795Z,-6.57
2019-01-23T07:27:09.266Z,-6.77
2019-01-23T07:29:39.719Z,-6.60
2019-01-23T07:32:10.119Z,-6.50
2019-01-23T07:34:40.693Z,-6.52
2019-01-23T07:37:11.084Z,-6.56
2019-01-23T07:39:41.715Z,-6.38
2019-01-23T07:42:12.044Z,-6.33
2019-01-23T07:44:42.437Z,-6.34
2019-01-23T07:47:12.741Z,-6.15
2019-01-23T07:49:43.935Z,-6.08
2019-01-23T07:52:14.449Z,-6.06
2019-01-23T07:54:44.861Z,-5.92
2019-01-23T07:57:15.085Z,-5.85
2019-01-23T07:59:45.429Z,-5.80
2019-01-23T08:02:15.836Z,-5.63
2019-01-23T08:04:46.239Z,-5.53
2019-01-23T08:07:16.768Z,-5.33
2019-01-23T08:09:48.306Z,-5.27
2019-01-23T08:12:18.730Z,-5.17
2019-01-23T08:14:49.027Z,-5.05
2019-01-23T08:17:19.325Z,-4.99
2019-01-23T08:19:49.645Z,-4.92
2019-01-23T08:22:20.047Z,-4.78
2019-01-23T08:24:50.543Z,-4.73
2019-01-23T08:27:20.865Z,-4.67
2019-01-23T08:29:51.162Z,-4.56
2019-01-23T08:32:21.442Z,-4.45
2019-01-23T08:34:51.779Z,-4.32
2019-01-23T08:37:22.105Z,-4.32
2019-01-23T08:39:52.259Z,-4.39
2019-01-23T08:42:22.491Z,-4.25
2019-01-23T08:44:52.802Z,-4.17
2019-01-23T08:47:23.260Z,-4.03
2019-01-23T08:49:53.532Z,-3.89
2019-01-23T08:52:23.785Z,-3.97
2019-01-23T08:54:54.127Z,-3.82
2019-01-23T08:57:24.469Z,-3.87
2019-01-23T08:59:54.792Z,-3.86
2019-01-23T09:02:25.043Z,-3.80
2019-01-23T09:04:55.411Z,-3.68
2019-01-23T09:07:25.781Z,-3.29
2019-01-23T09:09:56.262Z,-3.41
2019-01-23T09:12:26.649Z,-3.59
2019-01-23T09:14:56.974Z,-3.43
2019-01-23T09:17:27.736Z,-3.30
2019-01-23T09:19:58.034Z,-3.39
2019-01-23T09:22:28.473Z,-3.28
2019-01-23T09:24:58.779Z,-3.33
2019-01-23T09:27:29.069Z,-3.25
2019-01-23T09:29:59.193Z,-3.19
2019-01-23T09:33:27.041Z,-3.22
2019-01-23T09:36:44.933Z,-3.10
2019-01-23T09:39:46.851Z,-3.06
2019-01-23T09:43:40.241Z,-0.50
2019-01-23T09:46:50.010Z,-2.12
2019-01-23T09:50:12.028Z,-2.34
2019-01-23T09:53:31.844Z,-2.24
2019-01-23T09:56:02.292Z,-2.33
2019-01-23T09:58:32.636Z,-2.51
2019-01-23T10:01:06.589Z,-2.50
2019-01-23T10:03:35.318Z,-2.34
2019-01-23T10:06:05.920Z,-2.44
2019-01-23T10:08:36.102Z,-2.49
2019-01-23T10:11:06.456Z,-2.25
2019-01-23T10:13:36.775Z,-2.28
2019-01-23T10:16:18.985Z,-2.27
2019-01-23T10:18:55.834Z,-2.12
2019-01-23T10:21:21.433Z,-2.25
2019-01-23T10:23:51.777Z,-2.07
2019-01-23T10:26:22.152Z,-1.99
2019-01-23T10:28:52.567Z,-1.94
2019-01-23T10:31:23.048Z,-1.95
2019-01-23T10:33:53.368Z,-1.93
2019-01-23T10:36:23.819Z,-2.05
2019-01-23T10:38:54.266Z,-2.11
2019-01-23T10:41:24.708Z,-1.93
2019-01-23T10:43:55.121Z,-1.75
2019-01-23T10:46:25.506Z,-1.68
2019-01-23T10:48:55.945Z,-1.58
2019-01-23T10:51:26.311Z,-1.71
2019-01-23T10:53:56.574Z,-1.84
2019-01-23T10:56:27.045Z,-1.84
2019-01-23T10:58:57.398Z,-1.70
2019-01-23T11:01:27.823Z,-1.62
2019-01-23T11:03:58.126Z,-1.55
2019-01-23T11:06:28.522Z,-1.46
2019-01-23T11:08:58.896Z,-1.51
2019-01-23T11:11:29.330Z,-1.22
2019-01-23T11:13:59.695Z,-1.35
2019-01-23T11:16:30.094Z,-1.44
2019-01-23T11:19:00.396Z,-1.07
2019-01-23T11:21:30.775Z,-0.83
2019-01-23T11:24:01.157Z,-1.06
2019-01-23T11:26:31.494Z,-0.89
2019-01-23T11:29:02.033Z,-0.52
2019-01-23T11:31:32.443Z,-0.65
2019-01-23T11:34:02.891Z,-0.85
2019-01-23T11:36:33.341Z,-0.89
2019-01-23T11:39:05.438Z,-0.69
2019-01-23T11:41:35.806Z,-0.82
2019-01-23T11:44:06.177Z,-0.56
2019-01-23T11:46:36.535Z,-0.83
2019-01-23T11:49:06.943Z,-0.54
2019-01-23T11:51:37.314Z,-0.68
2019-01-23T11:54:07.751Z,-0.58
2019-01-23T11:56:38.082Z,-0.79
2019-01-23T11:59:08.490Z,-0.74
2019-01-23T12:01:38.885Z,-0.72
2019-01-23T12:04:09.551Z,-0.66
2019-01-23T12:06:39.992Z,-0.55
2019-01-23T12:09:11.771Z,-0.74
2019-01-23T12:11:42.109Z,-0.54
2019-01-23T12:14:12.418Z,-0.30
2019-01-23T12:16:42.921Z,-0.37
2019-01-23T12:19:13.338Z,-0.31
2019-01-23T12:21:43.626Z,-0.19
2019-01-23T12:24:14.004Z,-0.66
2019-01-23T12:26:44.414Z,-0.43
2019-01-23T12:29:14.829Z,-0.38
2019-01-23T12:31:45.270Z,-0.22
2019-01-23T12:34:15.505Z,-0.59
2019-01-23T12:36:45.933Z,-0.47
2019-01-23T12:39:16.349Z,-0.44
2019-01-23T12:41:46.747Z,-0.77
2019-01-23T12:44:17.172Z,-0.65
2019-01-23T12:46:47.576Z,-0.69
2019-01-23T12:49:17.987Z,-0.73
2019-01-23T12:51:48.389Z,-0.69
2019-01-23T12:54:18.717Z,-0.43
2019-01-23T12:56:49.108Z,-0.65
2019-01-23T12:59:19.361Z,-0.66
2019-01-23T13:01:49.783Z,-0.50
2019-01-23T13:04:20.150Z,-0.50
2019-01-23T13:06:51.586Z,-0.62
2019-01-23T13:09:21.879Z,-0.56
2019-01-23T13:11:52.262Z,-0.66
2019-01-23T13:14:22.552Z,-0.90
2019-01-23T13:16:52.950Z,-0.83
2019-01-23T13:19:23.241Z,-0.94
2019-01-23T13:21:53.567Z,-1.14
2019-01-23T13:24:23.861Z,-0.98
2019-01-23T13:26:54.284Z,-0.97
2019-01-23T13:29:24.514Z,-0.90
2019-01-23T13:31:54.835Z,-1.07
2019-01-23T13:34:25.132Z,-1.03
2019-01-23T13:36:55.515Z,-0.89
2019-01-23T13:39:26.951Z,-1.05
2019-01-23T13:41:57.339Z,-0.97
2019-01-23T13:44:27.704Z,-1.02
2019-01-23T13:46:58.115Z,-1.09
2019-01-23T13:49:28.478Z,-0.98
2019-01-23T13:51:58.862Z,-1.02
2019-01-23T13:54:29.172Z,-1.10
2019-01-23T13:56:59.573Z,-1.13
2019-01-23T13:59:29.794Z,-0.89
2019-01-23T14:02:00.163Z,-1.02
2019-01-23T14:04:30.546Z,-0.88
2019-01-23T14:07:01.014Z,-0.98
2019-01-23T14:09:31.421Z,-0.93
2019-01-23T14:12:04.651Z,-0.77
2019-01-23T14:14:35.073Z,-0.86
2019-01-23T14:17:05.392Z,-0.71
2019-01-23T14:19:35.519Z,-0.77
2019-01-23T14:22:06.227Z,-0.90
2019-01-23T14:24:36.538Z,-0.86
2019-01-23T14:27:07.048Z,-0.66
2019-01-23T14:29:37.433Z,-0.92
2019-01-23T14:32:07.865Z,-0.79
2019-01-23T14:34:38.186Z,-0.82
2019-01-23T14:37:08.581Z,-1.13
2019-01-23T14:39:38.853Z,-1.07
2019-01-23T14:42:09.253Z,-1.12
2019-01-23T14:44:39.444Z,-1.09
2019-01-23T14:47:09.569Z,-1.21
2019-01-23T14:49:39.921Z,-1.26
2019-01-23T14:52:10.310Z,-1.21
2019-01-23T14:54:40.672Z,-1.30
2019-01-23T14:57:11.081Z,-1.25
2019-01-23T14:59:41.360Z,-1.18
2019-01-23T15:02:11.630Z,-1.15
2019-01-23T15:04:41.995Z,-1.03
2019-01-23T15:07:13.311Z,-1.05
2019-01-23T15:09:43.719Z,-1.09
2019-01-23T15:12:14.039Z,-1.28
2019-01-23T15:14:44.337Z,-1.35
2019-01-23T15:17:14.658Z,-1.30
2019-01-23T15:19:45.044Z,-1.36
2019-01-23T15:22:15.443Z,-1.29
2019-01-23T15:24:45.712Z,-1.27
2019-01-23T15:27:15.917Z,-1.31
2019-01-23T15:29:46.243Z,-1.40
2019-01-23T15:32:17.455Z,-1.23
2019-01-23T15:34:48.122Z,-1.33
2019-01-23T15:37:18.348Z,-1.59
2019-01-23T15:39:49.345Z,-1.50
2019-01-23T15:42:19.806Z,-1.45
2019-01-23T15:44:50.777Z,-1.34
2019-01-23T15:47:21.010Z,-1.51
2019-01-23T15:49:51.436Z,-1.51
2019-01-23T15:52:22.759Z,-1.50
2019-01-23T15:54:53.072Z,-1.51
2019-01-23T15:57:23.438Z,-1.66
2019-01-23T15:59:53.864Z,-1.67
2019-01-23T16:02:24.585Z,-1.66
2019-01-23T16:04:54.996Z,-1.56
2019-01-23T16:07:25.410Z,-1.54
2019-01-23T16:09:55.719Z,-1.72
2019-01-23T16:12:26.103Z,-1.71
2019-01-23T16:14:56.439Z,-1.72
2019-01-23T16:17:26.878Z,-1.72
2019-01-23T16:19:57.136Z,-1.65
2019-01-23T16:22:27.459Z,-1.68
2019-01-23T16:24:57.868Z,-1.73
2019-01-23T16:27:28.094Z,-1.67
2019-01-23T16:29:58.522Z,-1.64
2019-01-23T16:32:31.557Z,-1.66
2019-01-23T16:35:01.755Z,-1.64
2019-01-23T16:37:32.157Z,-1.74
2019-01-23T16:40:02.507Z,-1.68
2019-01-23T16:42:33.018Z,-1.68
2019-01-23T16:45:03.527Z,-1.63
2019-01-23T16:47:33.875Z,-1.68
2019-01-23T16:50:05.895Z,-1.63
2019-01-23T16:52:36.364Z,-1.71
2019-01-23T16:55:07.839Z,-1.80
2019-01-23T16:57:38.232Z,-1.78
2019-01-23T17:00:11.065Z,-1.74
2019-01-23T17:02:41.402Z,-1.88
2019-01-23T17:05:21.159Z,-1.98
2019-01-23T17:07:51.551Z,-1.83
2019-01-23T17:10:23.737Z,-1.89
2019-01-23T17:12:54.032Z,-1.88
2019-01-23T17:15:24.438Z,-1.85
2019-01-23T17:17:54.855Z,-1.97
2019-01-23T17:20:39.371Z,-1.90
2019-01-23T17:23:09.769Z,-1.96
2019-01-23T17:25:40.259Z,-1.94
2019-01-23T17:28:13.549Z,-2.01
2019-01-23T17:30:49.831Z,-2.05
2019-01-23T17:33:20.231Z,-2.07
2019-01-23T17:35:50.604Z,-2.07
2019-01-23T17:38:20.994Z,-2.00
2019-01-23T17:40:51.468Z,-2.06
2019-01-23T17:43:22.919Z,-2.08
2019-01-23T17:45:53.323Z,-2.09
2019-01-23T17:48:27.700Z,-2.05
2019-01-23T17:51:00.125Z,-2.10
2019-01-23T17:53:30.501Z,-2.17
2019-01-23T17:56:00.815Z,-2.15
2019-01-23T17:58:31.095Z,-1.23
2019-01-23T18:01:01.637Z,-1.93
2019-01-23T18:03:32.162Z,-2.01
2019-01-23T18:06:02.699Z,-2.09
2019-01-23T18:08:33.169Z,-2.11
2019-01-23T18:11:03.650Z,-2.17
2019-01-23T18:13:34.096Z,-2.28
2019-01-23T18:16:09.813Z,-2.32
2019-01-23T18:18:40.224Z,-2.23
2019-01-23T18:21:10.677Z,-2.23
2019-01-23T18:23:41.107Z,-2.18
2019-01-23T18:26:11.685Z,-2.21
2019-01-23T18:28:42.068Z,-2.31
2019-01-23T18:31:41.653Z,-2.29
2019-01-23T18:35:21.142Z,-2.31
2019-01-23T18:38:16.986Z,-2.39
2019-01-23T18:41:31.907Z,-2.25
2019-01-23T18:44:51.723Z,-2.33
2019-01-23T18:48:06.141Z,-2.44
2019-01-23T18:51:12.717Z,-2.27
2019-01-23T18:53:43.154Z,-2.27
2019-01-23T18:56:13.618Z,-2.38
2019-01-23T18:58:44.132Z,-2.46
2019-01-23T19:01:14.538Z,-2.43
2019-01-23T19:03:44.988Z,-2.50
2019-01-23T19:06:18.667Z,-2.51
2019-01-23T19:08:48.855Z,-2.47
2019-01-23T19:11:19.233Z,-2.56
2019-01-23T19:13:49.593Z,-2.43
2019-01-23T19:16:19.935Z,-2.48
2019-01-23T19:18:50.297Z,-2.55
2019-01-23T19:21:20.790Z,-2.57
2019-01-23T19:23:51.297Z,-2.49
2019-01-23T19:26:21.782Z,-2.57
2019-01-23T19:28:53.308Z,-2.65
2019-01-23T19:31:23.868Z,-2.70
2019-01-23T19:33:54.738Z,-2.64
2019-01-23T19:36:25.270Z,-2.66
2019-01-23T19:38:55.673Z,-2.64
2019-01-23T19:41:27.612Z,-2.61
2019-01-23T19:43:58.078Z,-2.67
2019-01-23T19:46:28.573Z,-2.64
2019-01-23T19:48:59.954Z,-2.72
2019-01-23T19:51:30.485Z,-2.64
2019-01-23T19:54:00.925Z,-2.69
2019-01-23T19:56:31.495Z,-2.66
2019-01-23T19:59:02.017Z,-2.75
2019-01-23T20:01:32.463Z,-2.75
2019-01-23T20:04:02.949Z,-2.71
2019-01-23T20:06:33.470Z,-2.66
2019-01-23T20:09:05.740Z,-2.73
2019-01-23T20:11:37.705Z,-2.72
2019-01-23T20:14:09.505Z,-2.75
2019-01-23T20:16:39.932Z,-2.70
2019-01-23T20:19:13.292Z,-2.68
2019-01-23T20:21:43.899Z,-2.58
2019-01-23T20:24:14.384Z,-2.68
2019-01-23T20:26:45.108Z,-2.69
2019-01-23T20:29:15.510Z,-2.66
2019-01-23T20:31:47.123Z,-2.61
2019-01-23T20:34:17.659Z,-2.65
2019-01-23T20:36:48.076Z,-2.60
2019-01-23T20:39:20.510Z,-2.67
2019-01-23T20:41:51.040Z,-2.72
2019-01-23T20:44:25.041Z,-2.66
2019-01-23T20:46:55.521Z,-2.83
2019-01-23T20:49:26.096Z,-2.95
2019-01-23T20:51:56.407Z,-3.00
2019-01-23T20:54:26.835Z,-3.04
2019-01-23T20:56:57.179Z,-3.09
2019-01-23T20:59:27.593Z,-3.12
2019-01-23T21:01:57.425Z,-3.14
2019-01-23T21:04:27.956Z,-3.19
2019-01-23T21:06:58.430Z,-3.08
2019-01-23T21:09:28.858Z,-3.18
2019-01-23T21:11:59.471Z,-3.21
2019-01-23T21:14:29.778Z,-3.20
2019-01-23T21:17:00.181Z,-3.20
2019-01-23T21:19:30.662Z,-3.26
2019-01-23T21:22:01.146Z,-3.23
2019-01-23T21:24:31.596Z,-3.37
2019-01-23T21:27:02.047Z,-3.27
2019-01-23T21:29:32.470Z,-3.20
2019-01-23T21:32:02.841Z,-3.30
2019-01-23T21:34:33.278Z,-3.23
2019-01-23T21:37:03.808Z,-3.33
2019-01-23T21:39:34.354Z,-3.29
2019-01-23T21:42:04.789Z,-3.29
2019-01-23T21:44:35.098Z,-3.32
2019-01-23T21:47:05.686Z,-3.28
2019-01-23T21:49:36.246Z,-3.33
2019-01-23T21:52:07.733Z,-3.37
2019-01-23T21:54:38.173Z,-3.15
2019-01-23T21:57:08.556Z,-3.20
2019-01-23T21:59:39.199Z,-3.28
2019-01-23T22:02:09.667Z,-3.29
2019-01-23T22:04:41.205Z,-3.19
2019-01-23T22:07:11.688Z,-3.20
2019-01-23T22:09:44.232Z,-3.15
2019-01-23T22:12:14.736Z,-3.24
2019-01-23T22:14:45.127Z,-3.28
2019-01-23T22:17:15.819Z,-3.30
2019-01-23T22:19:46.243Z,-3.34
2019-01-23T22:22:16.738Z,-3.25
2019-01-23T22:24:47.043Z,-3.26
2019-01-23T22:27:17.461Z,-3.39
2019-01-23T22:29:47.885Z,-3.23
2019-01-23T22:32:18.329Z,-3.31
2019-01-23T22:34:48.783Z,-3.44
2019-01-23T22:37:20.214Z,-3.45
2019-01-23T22:39:50.731Z,-3.46
2019-01-23T22:42:21.293Z,-3.58
2019-01-23T22:44:51.643Z,-3.47
2019-01-23T22:47:22.108Z,-3.44
2019-01-23T22:49:52.664Z,-3.51
2019-01-23T22:52:23.034Z,-3.48
2019-01-23T22:54:53.373Z,-3.53
2019-01-23T22:57:23.817Z,-3.50
2019-01-23T22:59:54.338Z,-3.43
2019-01-23T23:02:24.840Z,-3.54
2019-01-23T23:04:55.284Z,-3.55
2019-01-23T23:07:25.738Z,-3.50
2019-01-23T23:09:57.604Z,-3.52
2019-01-23T23:12:28.123Z,-3.61
2019-01-23T23:14:58.511Z,-3.69
2019-01-23T23:17:29.072Z,-3.54
2019-01-23T23:19:59.571Z,-3.57
2019-01-23T23:22:30.006Z,-3.67
2019-01-23T23:25:00.443Z,-3.56
2019-01-23T23:27:30.785Z,-3.58
2019-01-23T23:30:01.324Z,-3.56
2019-01-23T23:32:31.818Z,-3.57
2019-01-23T23:35:02.288Z,-3.62
2019-01-23T23:37:32.680Z,-3.56
2019-01-23T23:40:03.178Z,-3.68
2019-01-23T23:42:33.657Z,-3.72
2019-01-23T23:45:05.139Z,-3.72
2019-01-23T23:47:35.606Z,-3.76
2019-01-23T23:50:07.824Z,-3.77
2019-01-23T23:52:38.291Z,-3.82
2019-01-23T23:55:09.915Z,-3.95
2019-01-23T23:57:40.263Z,-3.86
